AirNav   Everest Fuels
 
 1550 users online  

CN12 Williams Gliderport
Williams, California, USA

GOING TO WILLIAMS?


FAA INFORMATION EFFECTIVE 21 APRIL 2022

Location

FAA Identifier: CN12
Lat/Long: 39-09-48.6080N 122-07-53.9080W
39-09.810133N 122-07.898467W
39.1635022,-122.1316411
(estimated)
Elevation: 68 ft. / 21 m (estimated)
Variation: 16E (1985)
From city: 1 mile NE of WILLIAMS, CA
Time zone: UTC -7 (UTC -8 during Standard Time)
Zip code: 95987

Gliderport Operations

Gliderport use: Private use. Permission required prior to landing
Control tower: no
ARTCC: OAKLAND CENTER
FSS: RANCHO MURIETA FLIGHT SERVICE STATION
Attendance: UNATNDD
Wind indicator: yes
Segmented circle: no
Landing fee: yes

Nearby radio navigation aids

VOR radial/distance  VOR name  Freq  Var
ILAr301/7.4WILLIAMS VORTAC114.4018E
MYVr263/26.3MARYSVILLE VOR/DME110.8016E

Gliderport Services

Airframe service: NONE
Powerplant service: NONE

Runway Information

Runway 16/34

Dimensions: 2500 x 40 ft. / 762 x 12 m
Surface: asphalt
RUNWAY 16  RUNWAY 34
Traffic pattern: rightright

Gliderport Ownership and Management from official FAA records

Ownership: Privately-owned
Owner: VACAVILLE AERO SVCS INC
2668 HUSTED ROAD
WILLIAMS, CA 95987-5105
Phone 530-473-5600
Manager: BRETT R. MAYES
2668 HUSTED ROAD
WILLIAMS, CA 95987-5105
Phone 530-473-5600
ADD'L CONTACT NOELLE MAYES, 530-330-4354, NOELLE@WILLIAMSSOARING.COM

Gliderport Operational Statistics

Aircraft based on the field: 59
Single engine airplanes: 7
Multi engine airplanes: 2
Gliders airplanes: 50
    

Additional Remarks

RWY/APRON - POOR; UNPAVED PORTION - POOR/SOFT WHEN WET.
FOR CD CTC OAKLAND ARTCC AT 510-745-3380.

Instrument Procedures

There are no published instrument procedures at CN12.

Some nearby airports with instrument procedures:

O08 - Colusa County Airport (6 nm E)
KWLW - Willows/Glenn County Airport (22 nm N)
KMYV - Yuba County Airport (26 nm E)
KOVE - Oroville Municipal Airport (31 nm NE)
O41 - Watts-Woodland Airport (32 nm S)
 
Loc | Ops | Rwys | IFR | FBO | Links
Com | Nav | Svcs | Stats | Notes

Sonoma Jet Center
 
Area around CN12 (Williams Gliderport)
 
Road maps at: MapQuest Bing Google
 
Aerial photo
WARNING: Photo may not be current or correct
Aerial photo of CN12 (Williams Gliderport)
Photo by Kempton Izuno

Do you have a better or more recent aerial photo of Williams Gliderport that you would like to share? If so, please send us your photo.

 
Sectional chart

 
Airport distance calculator
Flying to Williams Gliderport? Find the distance to fly.

From to CN12

Sunrise and sunset
Times for 17-May-2022
 Local
(UTC-7)
 Zulu
(UTC)
Morning civil twilight05:2412:24
Sunrise05:5412:54
Sunset20:1503:15
Evening civil twilight20:4603:46

Current date and time
Zulu (UTC)  17-May-2022 21:22:14
Local (UTC-7)  17-May-2022 14:22:14
 
METAR
KMYV 
27nm E 
172053Z AUTO 10SM CLR 30/09 A2997 RMK AO2 SLP153 T03000089 56010 TSNO
KOVE 
31nm NE 
172053Z AUTO 26005KT 10SM CLR 30/11 A2998 RMK AO2 SLP154 T03000106 58009
KBAB 
32nm E 
172058Z AUTO 33008KT 10SM CLR 29/09 A2997 RMK AO2 SLP151 T02870094 57009 $
KSMF 
37nm SE 
172053Z 33011G16KT 10SM CLR 31/04 A2997 RMK AO2 SLP147 T03060044 58013
KDWA 
37nm S 
172055Z AUTO 35007KT 10SM CLR 31/06 A2999 RMK AO2
KLHM 
39nm SE 
172055Z AUTO 10SM CLR 28/10 A2998 RMK AO1
KCIC 
40nm N 
172047Z 30008KT 10SM CLR 30/01 A2998
KEDU 
41nm SE 
172055Z AUTO 10SM CLR 30/07 A2999 RMK AO1
KMCC 
45nm SE 
172055Z AUTO 30009G14KT 260V340 10SM CLR 30/07 A2997 RMK AO2
KVCB 
48nm S 
172053Z AUTO VRB05KT 10SM CLR 31/12 A3000 RMK AO2 SLP156 T03060117 58009
TAF
KBAB 
32nm E 
171905Z 1719/1901 32012KT 9999 FEW200 QNH2987INS WND 210V330 BECMG 1802/1803 VRB04KT 9999 SKC QNH2988INS BECMG 1816/1817 33012KT 9999 SKC QNH2987INS BECMG 1820/1821 33012G20KT 9999 SKC QNH2986INS TX32/1800Z TN14/1813Z
KSMF 
37nm SE 
171720Z 1718/1818 33007KT P6SM FEW250 FM180200 21008KT P6SM SKC FM180600 16007KT P6SM SKC
NOTAMs
Click for the latest NOTAMs
NOTAMs are issued by the DoD/FAA and will open in a separate window not controlled by AirNav.

 

 
 

Would you like to see your business listed on this page?

 If your business provides an interesting product or service to pilots, flight crews, aircraft, or users of the Williams Gliderport, you should consider listing it here.  To start the listing process, click on the button below
 
Add a business
 

Other Pages about Williams Gliderport

Update a link
 
Copyright © AirNav, LLC. All rights reserved. Privacy Policy  Contact